sensor_id;sensor_type;location;lat;lon;timestamp;P1;durP1;ratioP1;P2;durP2;ratioP2
32365;SDS011;18837;46.832;16.838;2023-05-21T01:05:41;8.97;;;8.07;;
32365;SDS011;18837;46.832;16.838;2023-05-21T01:08:09;9.73;;;8.83;;
32365;SDS011;18837;46.832;16.838;2023-05-21T01:10:34;10.27;;;9.30;;
32365;SDS011;18837;46.832;16.838;2023-05-21T01:13:00;9.73;;;8.83;;
32365;SDS011;18837;46.832;16.838;2023-05-21T01:24:34;10.43;;;9.10;;
32365;SDS011;18837;46.832;16.838;2023-05-21T01:27:02;9.33;;;8.43;;
32365;SDS011;18837;46.832;16.838;2023-05-21T01:29:31;9.50;;;8.60;;
32365;SDS011;18837;46.832;16.838;2023-05-21T01:38:23;9.57;;;8.67;;
32365;SDS011;18837;46.832;16.838;2023-05-21T01:43:38;9.73;;;8.73;;
32365;SDS011;18837;46.832;16.838;2023-05-21T01:48:50;9.57;;;8.57;;
32365;SDS011;18837;46.832;16.838;2023-05-21T01:57:18;9.87;;;8.97;;
32365;SDS011;18837;46.832;16.838;2023-05-21T01:59:44;9.63;;;8.73;;
32365;SDS011;18837;46.832;16.838;2023-05-21T02:02:11;9.60;;;8.60;;
32365;SDS011;18837;46.832;16.838;2023-05-21T02:04:37;10.27;;;9.27;;
32365;SDS011;18837;46.832;16.838;2023-05-21T02:07:05;9.33;;;8.43;;
32365;SDS011;18837;46.832;16.838;2023-05-21T02:09:46;10.37;;;9.37;;
32365;SDS011;18837;46.832;16.838;2023-05-21T02:12:12;9.60;;;8.70;;
32365;SDS011;18837;46.832;16.838;2023-05-21T02:14:39;9.93;;;8.93;;
32365;SDS011;18837;46.832;16.838;2023-05-21T02:17:05;9.90;;;9.10;;
32365;SDS011;18837;46.832;16.838;2023-05-21T02:19:32;9.97;;;9.00;;
32365;SDS011;18837;46.832;16.838;2023-05-21T02:21:58;10.07;;;9.17;;
32365;SDS011;18837;46.832;16.838;2023-05-21T02:24:23;10.10;;;9.20;;
32365;SDS011;18837;46.832;16.838;2023-05-21T02:32:54;10.47;;;9.43;;
32365;SDS011;18837;46.832;16.838;2023-05-21T02:35:22;9.70;;;8.80;;
32365;SDS011;18837;46.832;16.838;2023-05-21T02:37:48;10.37;;;9.37;;
32365;SDS011;18837;46.832;16.838;2023-05-21T02:40:17;10.40;;;9.43;;
32365;SDS011;18837;46.832;16.838;2023-05-21T02:42:42;10.87;;;9.63;;
32365;SDS011;18837;46.832;16.838;2023-05-21T02:45:20;11.17;;;10.07;;
32365;SDS011;18837;46.832;16.838;2023-05-21T02:47:46;10.63;;;9.70;;
32365;SDS011;18837;46.832;16.838;2023-05-21T02:50:12;10.57;;;9.57;;
32365;SDS011;18837;46.832;16.838;2023-05-21T02:52:38;11.23;;;10.07;;
32365;SDS011;18837;46.832;16.838;2023-05-21T02:55:03;10.43;;;9.47;;
32365;SDS011;18837;46.832;16.838;2023-05-21T02:57:30;10.67;;;9.67;;
32365;SDS011;18837;46.832;16.838;2023-05-21T04:56:40;9.90;;;9.00;;
32365;SDS011;18837;46.832;16.838;2023-05-21T04:59:06;9.33;;;8.50;;
32365;SDS011;18837;46.832;16.838;2023-05-21T05:01:32;9.87;;;8.90;;
32365;SDS011;18837;46.832;16.838;2023-05-21T05:04:11;10.97;;;9.10;;
32365;SDS011;18837;46.832;16.838;2023-05-21T05:06:37;9.73;;;8.80;;
32365;SDS011;18837;46.832;16.838;2023-05-21T05:09:03;10.43;;;9.43;;
32365;SDS011;18837;46.832;16.838;2023-05-21T05:11:29;9.60;;;8.77;;
32365;SDS011;18837;46.832;16.838;2023-05-21T05:13:55;10.37;;;9.37;;
32365;SDS011;18837;46.832;16.838;2023-05-21T05:16:21;10.17;;;9.27;;
32365;SDS011;18837;46.832;16.838;2023-05-21T05:24:45;10.20;;;9.20;;
32365;SDS011;18837;46.832;16.838;2023-05-21T05:27:11;10.00;;;9.00;;
32365;SDS011;18837;46.832;16.838;2023-05-21T05:29:36;10.83;;;9.83;;
32365;SDS011;18837;46.832;16.838;2023-05-21T05:32:02;10.67;;;9.53;;
32365;SDS011;18837;46.832;16.838;2023-05-21T05:34:28;10.13;;;9.23;;
32365;SDS011;18837;46.832;16.838;2023-05-21T05:37:09;10.73;;;9.60;;
32365;SDS011;18837;46.832;16.838;2023-05-21T05:39:35;10.40;;;9.40;;
32365;SDS011;18837;46.832;16.838;2023-05-21T05:42:00;10.57;;;9.50;;
32365;SDS011;18837;46.832;16.838;2023-05-21T05:44:27;9.63;;;8.73;;
32365;SDS011;18837;46.832;16.838;2023-05-21T05:46:53;9.90;;;9.00;;
32365;SDS011;18837;46.832;16.838;2023-05-21T05:49:19;10.73;;;9.57;;
32365;SDS011;18837;46.832;16.838;2023-05-21T05:51:44;10.47;;;9.47;;
32365;SDS011;18837;46.832;16.838;2023-05-21T05:54:19;10.93;;;9.83;;
32365;SDS011;18837;46.832;16.838;2023-05-21T05:59:34;10.87;;;9.87;;
32365;SDS011;18837;46.832;16.838;2023-05-21T06:02:00;10.93;;;9.93;;
32365;SDS011;18837;46.832;16.838;2023-05-21T06:04:25;10.93;;;9.90;;
32365;SDS011;18837;46.832;16.838;2023-05-21T06:06:54;10.33;;;9.33;;
32365;SDS011;18837;46.832;16.838;2023-05-21T06:09:23;10.57;;;9.57;;
32365;SDS011;18837;46.832;16.838;2023-05-21T06:12:05;10.40;;;9.40;;
32365;SDS011;18837;46.832;16.838;2023-05-21T06:14:31;11.00;;;9.93;;
32365;SDS011;18837;46.832;16.838;2023-05-21T06:16:57;9.97;;;9.07;;
32365;SDS011;18837;46.832;16.838;2023-05-21T06:19:23;10.03;;;9.13;;
32365;SDS011;18837;46.832;16.838;2023-05-21T06:21:48;10.63;;;9.63;;
32365;SDS011;18837;46.832;16.838;2023-05-21T06:24:14;11.00;;;10.00;;
32365;SDS011;18837;46.832;16.838;2023-05-21T06:26:46;9.97;;;9.03;;
32365;SDS011;18837;46.832;16.838;2023-05-21T06:35:16;10.67;;;9.67;;
32365;SDS011;18837;46.832;16.838;2023-05-21T06:37:42;10.87;;;9.77;;
32365;SDS011;18837;46.832;16.838;2023-05-21T06:40:08;16.87;;;10.07;;
32365;SDS011;18837;46.832;16.838;2023-05-21T06:42:34;11.17;;;9.53;;
32365;SDS011;18837;46.832;16.838;2023-05-21T06:45:00;11.87;;;10.60;;
32365;SDS011;18837;46.832;16.838;2023-05-21T06:47:35;14.57;;;12.93;;
32365;SDS011;18837;46.832;16.838;2023-05-21T06:50:04;13.27;;;11.93;;
32365;SDS011;18837;46.832;16.838;2023-05-21T06:52:29;15.67;;;12.60;;
32365;SDS011;18837;46.832;16.838;2023-05-21T06:54:58;12.77;;;11.37;;
32365;SDS011;18837;46.832;16.838;2023-05-21T06:57:24;12.03;;;10.73;;
32365;SDS011;18837;46.832;16.838;2023-05-21T06:59:49;12.47;;;11.17;;
32365;SDS011;18837;46.832;16.838;2023-05-21T07:02:30;12.13;;;10.93;;
32365;SDS011;18837;46.832;16.838;2023-05-21T07:08:03;11.43;;;10.23;;
32365;SDS011;18837;46.832;16.838;2023-05-21T07:10:29;12.10;;;11.00;;
32365;SDS011;18837;46.832;16.838;2023-05-21T07:12:55;11.20;;;10.20;;
32365;SDS011;18837;46.832;16.838;2023-05-21T07:15:20;11.77;;;10.57;;
32365;SDS011;18837;46.832;16.838;2023-05-21T07:17:46;11.83;;;10.73;;
32365;SDS011;18837;46.832;16.838;2023-05-21T07:20:12;11.63;;;10.53;;
32365;SDS011;18837;46.832;16.838;2023-05-21T07:22:42;11.77;;;10.67;;
32365;SDS011;18837;46.832;16.838;2023-05-21T07:25:17;11.43;;;10.30;;
32365;SDS011;18837;46.832;16.838;2023-05-21T07:27:43;10.77;;;9.77;;
32365;SDS011;18837;46.832;16.838;2023-05-21T07:30:09;11.57;;;10.27;;
32365;SDS011;18837;46.832;16.838;2023-05-21T07:32:35;11.00;;;10.00;;
32365;SDS011;18837;46.832;16.838;2023-05-21T07:35:01;10.70;;;9.63;;
32365;SDS011;18837;46.832;16.838;2023-05-21T07:43:16;10.97;;;9.97;;
32365;SDS011;18837;46.832;16.838;2023-05-21T07:45:42;10.90;;;9.80;;
32365;SDS011;18837;46.832;16.838;2023-05-21T07:48:10;12.97;;;10.23;;
32365;SDS011;18837;46.832;16.838;2023-05-21T07:50:36;14.60;;;12.07;;
32365;SDS011;18837;46.832;16.838;2023-05-21T07:53:02;12.67;;;11.47;;
32365;SDS011;18837;46.832;16.838;2023-05-21T07:55:46;12.67;;;11.47;;
32365;SDS011;18837;46.832;16.838;2023-05-21T07:58:15;12.83;;;11.40;;
32365;SDS011;18837;46.832;16.838;2023-05-21T08:00:45;11.87;;;10.67;;
32365;SDS011;18837;46.832;16.838;2023-05-21T08:03:15;12.83;;;11.53;;
32365;SDS011;18837;46.832;16.838;2023-05-21T08:05:44;13.23;;;11.17;;
32365;SDS011;18837;46.832;16.838;2023-05-21T08:08:15;13.40;;;12.00;;
32365;SDS011;18837;46.832;16.838;2023-05-21T08:10:41;12.33;;;11.07;;
32365;SDS011;18837;46.832;16.838;2023-05-21T08:13:07;11.87;;;10.73;;
32365;SDS011;18837;46.832;16.838;2023-05-21T08:15:33;13.43;;;11.70;;
32365;SDS011;18837;46.832;16.838;2023-05-21T08:17:59;13.07;;;11.07;;
32365;SDS011;18837;46.832;16.838;2023-05-21T08:20:25;16.53;;;11.70;;
32365;SDS011;18837;46.832;16.838;2023-05-21T08:22:50;11.73;;;10.53;;
32365;SDS011;18837;46.832;16.838;2023-05-21T08:25:17;12.03;;;10.80;;
32365;SDS011;18837;46.832;16.838;2023-05-21T08:27:43;12.73;;;10.67;;
32365;SDS011;18837;46.832;16.838;2023-05-21T08:30:09;11.30;;;9.97;;
32365;SDS011;18837;46.832;16.838;2023-05-21T08:32:39;14.73;;;10.17;;
32365;SDS011;18837;46.832;16.838;2023-05-21T08:35:05;12.17;;;10.30;;
32365;SDS011;18837;46.832;16.838;2023-05-21T08:37:31;11.47;;;10.27;;
32365;SDS011;18837;46.832;16.838;2023-05-21T08:39:57;11.53;;;10.13;;
32365;SDS011;18837;46.832;16.838;2023-05-21T08:42:29;13.93;;;10.60;;
32365;SDS011;18837;46.832;16.838;2023-05-21T08:45:07;11.40;;;10.30;;
32365;SDS011;18837;46.832;16.838;2023-05-21T08:47:36;544.53;;;133.13;;
32365;SDS011;18837;46.832;16.838;2023-05-21T08:50:09;503.58;;;129.73;;
32365;SDS011;18837;46.832;16.838;2023-05-21T08:52:36;93.90;;;36.53;;
32365;SDS011;18837;46.832;16.838;2023-05-21T08:55:02;73.07;;;25.90;;
32365;SDS011;18837;46.832;16.838;2023-05-21T08:57:29;51.37;;;19.50;;
32365;SDS011;18837;46.832;16.838;2023-05-21T08:59:56;37.50;;;16.53;;
32365;SDS011;18837;46.832;16.838;2023-05-21T09:02:22;28.93;;;14.43;;
32365;SDS011;18837;46.832;16.838;2023-05-21T09:04:54;17.87;;;11.40;;
32365;SDS011;18837;46.832;16.838;2023-05-21T09:07:21;16.43;;;10.27;;
32365;SDS011;18837;46.832;16.838;2023-05-21T09:09:54;15.00;;;9.80;;
32365;SDS011;18837;46.832;16.838;2023-05-21T09:12:21;10.63;;;9.07;;
32365;SDS011;18837;46.832;16.838;2023-05-21T09:14:47;12.57;;;8.57;;
32365;SDS011;18837;46.832;16.838;2023-05-21T09:17:14;9.20;;;8.20;;
32365;SDS011;18837;46.832;16.838;2023-05-21T09:22:41;10.87;;;8.97;;
32365;SDS011;18837;46.832;16.838;2023-05-21T09:25:08;10.80;;;8.63;;
32365;SDS011;18837;46.832;16.838;2023-05-21T09:27:35;10.27;;;9.17;;
32365;SDS011;18837;46.832;16.838;2023-05-21T09:30:02;11.60;;;9.13;;
32365;SDS011;18837;46.832;16.838;2023-05-21T09:32:33;10.97;;;9.23;;
32365;SDS011;18837;46.832;16.838;2023-05-21T09:38:03;10.87;;;9.47;;
32365;SDS011;18837;46.832;16.838;2023-05-21T09:40:42;10.77;;;9.50;;
32365;SDS011;18837;46.832;16.838;2023-05-21T09:43:11;13.20;;;9.47;;
32365;SDS011;18837;46.832;16.838;2023-05-21T09:45:38;10.57;;;9.50;;
32365;SDS011;18837;46.832;16.838;2023-05-21T09:48:14;9.80;;;8.80;;
32365;SDS011;18837;46.832;16.838;2023-05-21T09:50:40;10.10;;;9.07;;
32365;SDS011;18837;46.832;16.838;2023-05-21T09:53:10;9.27;;;8.40;;
32365;SDS011;18837;46.832;16.838;2023-05-21T09:55:48;10.67;;;9.60;;
32365;SDS011;18837;46.832;16.838;2023-05-21T09:58:18;9.70;;;8.70;;
32365;SDS011;18837;46.832;16.838;2023-05-21T10:00:44;9.33;;;8.40;;
32365;SDS011;18837;46.832;16.838;2023-05-21T10:03:10;13.43;;;9.17;;
32365;SDS011;18837;46.832;16.838;2023-05-21T10:05:38;9.43;;;8.63;;
32365;SDS011;18837;46.832;16.838;2023-05-21T10:08:05;10.90;;;9.27;;
32365;SDS011;18837;46.832;16.838;2023-05-21T10:13:40;9.50;;;8.53;;
32365;SDS011;18837;46.832;16.838;2023-05-21T10:16:08;10.67;;;8.37;;
32365;SDS011;18837;46.832;16.838;2023-05-21T10:18:35;10.87;;;8.07;;
32365;SDS011;18837;46.832;16.838;2023-05-21T10:21:01;9.03;;;8.13;;
32365;SDS011;18837;46.832;16.838;2023-05-21T10:23:28;9.13;;;8.27;;
32365;SDS011;18837;46.832;16.838;2023-05-21T10:25:54;9.80;;;8.83;;
32365;SDS011;18837;46.832;16.838;2023-05-21T10:28:26;8.93;;;8.03;;
32365;SDS011;18837;46.832;16.838;2023-05-21T10:30:56;8.93;;;8.03;;
32365;SDS011;18837;46.832;16.838;2023-05-21T10:33:22;10.30;;;9.27;;
32365;SDS011;18837;46.832;16.838;2023-05-21T10:35:48;9.33;;;8.43;;
32365;SDS011;18837;46.832;16.838;2023-05-21T10:38:17;10.43;;;8.80;;
32365;SDS011;18837;46.832;16.838;2023-05-21T10:40:44;9.43;;;8.50;;
32365;SDS011;18837;46.832;16.838;2023-05-21T10:52:17;9.50;;;8.67;;
32365;SDS011;18837;46.832;16.838;2023-05-21T10:57:15;9.93;;;8.93;;
32365;SDS011;18837;46.832;16.838;2023-05-21T10:59:45;10.03;;;8.90;;
32365;SDS011;18837;46.832;16.838;2023-05-21T11:02:12;10.53;;;9.43;;
32365;SDS011;18837;46.832;16.838;2023-05-21T11:04:45;9.60;;;8.70;;
32365;SDS011;18837;46.832;16.838;2023-05-21T11:07:13;9.20;;;8.40;;
32365;SDS011;18837;46.832;16.838;2023-05-21T11:09:39;11.57;;;7.77;;
32365;SDS011;18837;46.832;16.838;2023-05-21T11:12:08;10.43;;;8.80;;
32365;SDS011;18837;46.832;16.838;2023-05-21T11:14:37;12.07;;;9.13;;
32365;SDS011;18837;46.832;16.838;2023-05-21T11:19:35;19.33;;;13.83;;
32365;SDS011;18837;46.832;16.838;2023-05-21T11:24:37;15.70;;;12.13;;
32365;SDS011;18837;46.832;16.838;2023-05-21T11:27:03;16.73;;;11.80;;
32365;SDS011;18837;46.832;16.838;2023-05-21T11:29:40;13.70;;;11.97;;
32365;SDS011;18837;46.832;16.838;2023-05-21T11:32:08;14.43;;;12.43;;
32365;SDS011;18837;46.832;16.838;2023-05-21T11:34:35;16.17;;;11.80;;
32365;SDS011;18837;46.832;16.838;2023-05-21T11:39:55;13.77;;;11.90;;
32365;SDS011;18837;46.832;16.838;2023-05-21T11:44:55;13.07;;;11.70;;
32365;SDS011;18837;46.832;16.838;2023-05-21T11:47:24;13.23;;;11.17;;
32365;SDS011;18837;46.832;16.838;2023-05-21T11:49:50;13.00;;;11.80;;
32365;SDS011;18837;46.832;16.838;2023-05-21T11:52:16;12.63;;;11.30;;
32365;SDS011;18837;46.832;16.838;2023-05-21T11:54:56;12.33;;;10.00;;
32365;SDS011;18837;46.832;16.838;2023-05-21T11:57:40;12.63;;;11.33;;
32365;SDS011;18837;46.832;16.838;2023-05-21T12:00:11;12.60;;;11.37;;
32365;SDS011;18837;46.832;16.838;2023-05-21T12:02:38;12.57;;;10.93;;
32365;SDS011;18837;46.832;16.838;2023-05-21T12:05:07;12.63;;;11.30;;
32365;SDS011;18837;46.832;16.838;2023-05-21T12:07:33;12.00;;;10.87;;
32365;SDS011;18837;46.832;16.838;2023-05-21T12:09:59;12.17;;;10.87;;
32365;SDS011;18837;46.832;16.838;2023-05-21T12:12:27;12.40;;;11.20;;
32365;SDS011;18837;46.832;16.838;2023-05-21T12:14:53;11.47;;;10.43;;
32365;SDS011;18837;46.832;16.838;2023-05-21T12:17:21;11.33;;;10.23;;
32365;SDS011;18837;46.832;16.838;2023-05-21T12:19:47;11.13;;;10.00;;
32365;SDS011;18837;46.832;16.838;2023-05-21T12:22:14;9.73;;;8.93;;
32365;SDS011;18837;46.832;16.838;2023-05-21T12:24:40;12.13;;;10.43;;
32365;SDS011;18837;46.832;16.838;2023-05-21T12:27:19;11.87;;;10.30;;
32365;SDS011;18837;46.832;16.838;2023-05-21T12:32:43;10.63;;;9.60;;
32365;SDS011;18837;46.832;16.838;2023-05-21T12:35:18;11.10;;;9.83;;
32365;SDS011;18837;46.832;16.838;2023-05-21T12:37:45;10.27;;;9.33;;
32365;SDS011;18837;46.832;16.838;2023-05-21T12:40:11;11.07;;;9.87;;
32365;SDS011;18837;46.832;16.838;2023-05-21T12:42:37;13.37;;;9.93;;
32365;SDS011;18837;46.832;16.838;2023-05-21T12:45:05;11.03;;;9.93;;
32365;SDS011;18837;46.832;16.838;2023-05-21T12:50:20;10.03;;;8.90;;
32365;SDS011;18837;46.832;16.838;2023-05-21T12:52:46;10.53;;;9.63;;
32365;SDS011;18837;46.832;16.838;2023-05-21T12:55:13;10.60;;;9.60;;
32365;SDS011;18837;46.832;16.838;2023-05-21T12:57:39;10.47;;;9.50;;
32365;SDS011;18837;46.832;16.838;2023-05-21T13:00:08;9.93;;;8.93;;
32365;SDS011;18837;46.832;16.838;2023-05-21T13:02:41;10.43;;;9.47;;
32365;SDS011;18837;46.832;16.838;2023-05-21T13:07:58;11.47;;;10.27;;
32365;SDS011;18837;46.832;16.838;2023-05-21T13:10:25;10.53;;;9.23;;
32365;SDS011;18837;46.832;16.838;2023-05-21T13:12:51;10.07;;;9.17;;
32365;SDS011;18837;46.832;16.838;2023-05-21T13:15:17;10.27;;;9.27;;
32365;SDS011;18837;46.832;16.838;2023-05-21T13:17:43;9.97;;;8.97;;
32365;SDS011;18837;46.832;16.838;2023-05-21T13:20:12;10.10;;;9.20;;
32365;SDS011;18837;46.832;16.838;2023-05-21T13:22:49;10.37;;;9.37;;
32365;SDS011;18837;46.832;16.838;2023-05-21T13:27:43;10.20;;;9.30;;
32365;SDS011;18837;46.832;16.838;2023-05-21T13:30:09;9.93;;;9.03;;
32365;SDS011;18837;46.832;16.838;2023-05-21T13:32:36;9.33;;;8.53;;
32365;SDS011;18837;46.832;16.838;2023-05-21T13:35:02;9.10;;;8.30;;
32365;SDS011;18837;46.832;16.838;2023-05-21T13:40:22;10.50;;;9.50;;
32365;SDS011;18837;46.832;16.838;2023-05-21T13:45:39;9.30;;;8.40;;
32365;SDS011;18837;46.832;16.838;2023-05-21T13:48:05;9.37;;;8.47;;
32365;SDS011;18837;46.832;16.838;2023-05-21T13:50:31;8.37;;;7.67;;
32365;SDS011;18837;46.832;16.838;2023-05-21T13:52:58;9.57;;;7.97;;
32365;SDS011;18837;46.832;16.838;2023-05-21T13:55:24;9.23;;;8.20;;
32365;SDS011;18837;46.832;16.838;2023-05-21T13:58:05;9.33;;;8.47;;
32365;SDS011;18837;46.832;16.838;2023-05-21T14:00:31;9.10;;;8.20;;
32365;SDS011;18837;46.832;16.838;2023-05-21T14:02:57;9.43;;;8.63;;
32365;SDS011;18837;46.832;16.838;2023-05-21T14:05:24;9.40;;;8.50;;
32365;SDS011;18837;46.832;16.838;2023-05-21T14:07:50;9.10;;;8.20;;
32365;SDS011;18837;46.832;16.838;2023-05-21T14:10:16;8.90;;;8.03;;
32365;SDS011;18837;46.832;16.838;2023-05-21T14:12:42;9.20;;;8.40;;
32365;SDS011;18837;46.832;16.838;2023-05-21T14:15:55;9.37;;;8.47;;
32365;SDS011;18837;46.832;16.838;2023-05-21T14:18:21;8.50;;;7.80;;
32365;SDS011;18837;46.832;16.838;2023-05-21T14:20:48;9.33;;;8.43;;
32365;SDS011;18837;46.832;16.838;2023-05-21T14:23:14;8.63;;;7.83;;
32365;SDS011;18837;46.832;16.838;2023-05-21T14:25:40;9.57;;;8.03;;
32365;SDS011;18837;46.832;16.838;2023-05-21T14:28:06;8.57;;;7.67;;
32365;SDS011;18837;46.832;16.838;2023-05-21T14:30:41;9.10;;;8.20;;
32365;SDS011;18837;46.832;16.838;2023-05-21T14:33:07;8.90;;;8.00;;
32365;SDS011;18837;46.832;16.838;2023-05-21T14:35:34;10.53;;;9.40;;
32365;SDS011;18837;46.832;16.838;2023-05-21T14:38:00;8.90;;;8.10;;
32365;SDS011;18837;46.832;16.838;2023-05-21T14:40:26;8.80;;;8.00;;
32365;SDS011;18837;46.832;16.838;2023-05-21T14:42:52;9.47;;;8.37;;
32365;SDS011;18837;46.832;16.838;2023-05-21T14:45:20;9.63;;;8.40;;
32365;SDS011;18837;46.832;16.838;2023-05-21T14:50:46;8.43;;;7.73;;
32365;SDS011;18837;46.832;16.838;2023-05-21T14:53:12;9.20;;;8.47;;
32365;SDS011;18837;46.832;16.838;2023-05-21T14:55:38;9.50;;;8.60;;
32365;SDS011;18837;46.832;16.838;2023-05-21T14:58:04;8.77;;;8.00;;
32365;SDS011;18837;46.832;16.838;2023-05-21T15:00:31;9.20;;;8.30;;
32365;SDS011;18837;46.832;16.838;2023-05-21T15:02:57;9.00;;;8.20;;
32365;SDS011;18837;46.832;16.838;2023-05-21T15:05:32;9.40;;;8.67;;
32365;SDS011;18837;46.832;16.838;2023-05-21T15:07:59;8.43;;;7.57;;
32365;SDS011;18837;46.832;16.838;2023-05-21T15:10:27;9.00;;;7.77;;
32365;SDS011;18837;46.832;16.838;2023-05-21T15:12:54;8.47;;;7.67;;
32365;SDS011;18837;46.832;16.838;2023-05-21T15:15:20;8.47;;;7.67;;
32365;SDS011;18837;46.832;16.838;2023-05-21T15:17:46;8.97;;;8.07;;
32365;SDS011;18837;46.832;16.838;2023-05-21T15:20:21;8.90;;;8.10;;
32365;SDS011;18837;46.832;16.838;2023-05-21T15:23:00;8.93;;;8.10;;
32365;SDS011;18837;46.832;16.838;2023-05-21T15:25:38;8.70;;;7.90;;
32365;SDS011;18837;46.832;16.838;2023-05-21T15:28:04;8.67;;;7.97;;
32365;SDS011;18837;46.832;16.838;2023-05-21T15:30:30;8.80;;;8.00;;
32365;SDS011;18837;46.832;16.838;2023-05-21T15:32:56;9.10;;;8.20;;
32365;SDS011;18837;46.832;16.838;2023-05-21T15:35:22;8.87;;;7.93;;
32365;SDS011;18837;46.832;16.838;2023-05-21T15:37:49;8.37;;;7.67;;
32365;SDS011;18837;46.832;16.838;2023-05-21T15:40:20;8.77;;;7.97;;
32365;SDS011;18837;46.832;16.838;2023-05-21T15:42:46;8.37;;;7.67;;
32365;SDS011;18837;46.832;16.838;2023-05-21T15:45:12;8.73;;;8.00;;
32365;SDS011;18837;46.832;16.838;2023-05-21T15:47:38;9.17;;;8.37;;
32365;SDS011;18837;46.832;16.838;2023-05-21T15:50:08;8.93;;;8.13;;
32365;SDS011;18837;46.832;16.838;2023-05-21T15:52:34;9.13;;;8.33;;
32365;SDS011;18837;46.832;16.838;2023-05-21T15:55:10;9.20;;;8.30;;
32365;SDS011;18837;46.832;16.838;2023-05-21T15:57:37;8.33;;;7.63;;
32365;SDS011;18837;46.832;16.838;2023-05-21T16:00:04;8.43;;;7.63;;
32365;SDS011;18837;46.832;16.838;2023-05-21T16:02:30;9.00;;;8.20;;
32365;SDS011;18837;46.832;16.838;2023-05-21T16:04:56;9.30;;;8.40;;
32365;SDS011;18837;46.832;16.838;2023-05-21T16:07:22;9.27;;;8.47;;
32365;SDS011;18837;46.832;16.838;2023-05-21T16:09:48;10.03;;;8.77;;
32365;SDS011;18837;46.832;16.838;2023-05-21T16:12:14;9.70;;;8.73;;
32365;SDS011;18837;46.832;16.838;2023-05-21T16:14:40;10.00;;;9.10;;
32365;SDS011;18837;46.832;16.838;2023-05-21T16:17:07;9.20;;;8.30;;
32365;SDS011;18837;46.832;16.838;2023-05-21T16:19:33;9.87;;;8.57;;
32365;SDS011;18837;46.832;16.838;2023-05-21T16:21:59;9.47;;;8.53;;
32365;SDS011;18837;46.832;16.838;2023-05-21T16:24:26;9.17;;;8.27;;
32365;SDS011;18837;46.832;16.838;2023-05-21T16:26:52;10.13;;;8.20;;
32365;SDS011;18837;46.832;16.838;2023-05-21T16:29:18;9.60;;;8.60;;
32365;SDS011;18837;46.832;16.838;2023-05-21T16:31:45;9.30;;;8.40;;
32365;SDS011;18837;46.832;16.838;2023-05-21T16:34:12;8.97;;;8.00;;
32365;SDS011;18837;46.832;16.838;2023-05-21T16:36:38;9.47;;;8.60;;
32365;SDS011;18837;46.832;16.838;2023-05-21T16:39:04;8.90;;;8.10;;
32365;SDS011;18837;46.832;16.838;2023-05-21T16:41:30;8.63;;;7.87;;
32365;SDS011;18837;46.832;16.838;2023-05-21T16:43:56;12.03;;;7.90;;
32365;SDS011;18837;46.832;16.838;2023-05-21T16:46:22;10.70;;;8.20;;
32365;SDS011;18837;46.832;16.838;2023-05-21T16:48:54;8.40;;;7.50;;
32365;SDS011;18837;46.832;16.838;2023-05-21T16:51:20;8.57;;;7.77;;
32365;SDS011;18837;46.832;16.838;2023-05-21T16:53:46;9.93;;;8.53;;
32365;SDS011;18837;46.832;16.838;2023-05-21T16:56:13;8.77;;;7.93;;
32365;SDS011;18837;46.832;16.838;2023-05-21T16:58:39;8.97;;;8.07;;
32365;SDS011;18837;46.832;16.838;2023-05-21T17:01:05;10.80;;;8.23;;
32365;SDS011;18837;46.832;16.838;2023-05-21T17:03:31;9.40;;;8.50;;
32365;SDS011;18837;46.832;16.838;2023-05-21T17:06:16;10.13;;;7.90;;
32365;SDS011;18837;46.832;16.838;2023-05-21T17:08:54;8.93;;;7.73;;
32365;SDS011;18837;46.832;16.838;2023-05-21T17:11:20;8.70;;;7.90;;
32365;SDS011;18837;46.832;16.838;2023-05-21T17:13:46;9.30;;;8.50;;
32365;SDS011;18837;46.832;16.838;2023-05-21T17:16:13;9.17;;;7.77;;
32365;SDS011;18837;46.832;16.838;2023-05-21T17:18:39;8.93;;;8.13;;
32365;SDS011;18837;46.832;16.838;2023-05-21T17:21:05;8.83;;;7.47;;
32365;SDS011;18837;46.832;16.838;2023-05-21T17:23:37;11.30;;;8.00;;
32365;SDS011;18837;46.832;16.838;2023-05-21T17:26:03;11.67;;;8.43;;
32365;SDS011;18837;46.832;16.838;2023-05-21T17:28:31;9.40;;;8.50;;
32365;SDS011;18837;46.832;16.838;2023-05-21T17:30:57;10.30;;;8.30;;
32365;SDS011;18837;46.832;16.838;2023-05-21T17:33:23;15.00;;;8.90;;
32365;SDS011;18837;46.832;16.838;2023-05-21T17:35:49;9.37;;;8.57;;
32365;SDS011;18837;46.832;16.838;2023-05-21T17:38:24;10.37;;;8.83;;
32365;SDS011;18837;46.832;16.838;2023-05-21T17:40:50;9.37;;;8.37;;
32365;SDS011;18837;46.832;16.838;2023-05-21T17:43:29;11.73;;;9.17;;
32365;SDS011;18837;46.832;16.838;2023-05-21T17:45:56;10.27;;;8.40;;
32365;SDS011;18837;46.832;16.838;2023-05-21T17:48:22;9.40;;;8.37;;
32365;SDS011;18837;46.832;16.838;2023-05-21T17:50:48;11.37;;;8.80;;
32365;SDS011;18837;46.832;16.838;2023-05-21T17:53:15;8.43;;;7.63;;
32365;SDS011;18837;46.832;16.838;2023-05-21T17:55:42;10.90;;;8.30;;
32365;SDS011;18837;46.832;16.838;2023-05-21T17:58:17;9.87;;;8.87;;
32365;SDS011;18837;46.832;16.838;2023-05-21T18:00:43;8.90;;;7.67;;
32365;SDS011;18837;46.832;16.838;2023-05-21T18:03:09;9.20;;;8.33;;
32365;SDS011;18837;46.832;16.838;2023-05-21T18:05:35;8.63;;;7.83;;
32365;SDS011;18837;46.832;16.838;2023-05-21T18:08:01;8.90;;;8.00;;
32365;SDS011;18837;46.832;16.838;2023-05-21T18:10:28;8.50;;;7.70;;
32365;SDS011;18837;46.832;16.838;2023-05-21T18:13:00;8.53;;;7.73;;
32365;SDS011;18837;46.832;16.838;2023-05-21T18:18:21;8.27;;;7.40;;
32365;SDS011;18837;46.832;16.838;2023-05-21T18:20:48;9.00;;;8.17;;
32365;SDS011;18837;46.832;16.838;2023-05-21T18:23:14;8.83;;;7.90;;
32365;SDS011;18837;46.832;16.838;2023-05-21T18:25:40;7.83;;;7.03;;
32365;SDS011;18837;46.832;16.838;2023-05-21T18:28:07;8.03;;;7.33;;
32365;SDS011;18837;46.832;16.838;2023-05-21T18:30:33;8.37;;;7.67;;
32365;SDS011;18837;46.832;16.838;2023-05-21T18:33:09;8.53;;;7.80;;
32365;SDS011;18837;46.832;16.838;2023-05-21T18:35:36;7.83;;;7.10;;
32365;SDS011;18837;46.832;16.838;2023-05-21T18:38:02;8.23;;;7.43;;
32365;SDS011;18837;46.832;16.838;2023-05-21T18:40:33;8.10;;;7.30;;
32365;SDS011;18837;46.832;16.838;2023-05-21T18:42:59;8.40;;;7.53;;
32365;SDS011;18837;46.832;16.838;2023-05-21T18:45:27;8.67;;;7.77;;
32365;SDS011;18837;46.832;16.838;2023-05-21T18:47:54;8.50;;;7.63;;
32365;SDS011;18837;46.832;16.838;2023-05-21T18:50:30;7.87;;;7.07;;
32365;SDS011;18837;46.832;16.838;2023-05-21T18:52:56;9.03;;;8.13;;
32365;SDS011;18837;46.832;16.838;2023-05-21T18:55:22;7.60;;;6.90;;
32365;SDS011;18837;46.832;16.838;2023-05-21T18:57:49;7.37;;;6.67;;
32365;SDS011;18837;46.832;16.838;2023-05-21T19:00:15;8.20;;;7.30;;
32365;SDS011;18837;46.832;16.838;2023-05-21T19:02:41;8.30;;;7.03;;
32365;SDS011;18837;46.832;16.838;2023-05-21T19:05:08;9.00;;;8.10;;
32365;SDS011;18837;46.832;16.838;2023-05-21T19:07:38;8.73;;;7.50;;
32365;SDS011;18837;46.832;16.838;2023-05-21T19:10:07;10.00;;;8.03;;
32365;SDS011;18837;46.832;16.838;2023-05-21T19:12:34;8.23;;;7.50;;
32365;SDS011;18837;46.832;16.838;2023-05-21T19:15:00;8.50;;;7.67;;
32365;SDS011;18837;46.832;16.838;2023-05-21T19:17:26;7.43;;;6.67;;
32365;SDS011;18837;46.832;16.838;2023-05-21T19:19:52;8.67;;;7.77;;